Time;durP1;ratioP1;P1;durP2;ratioP2;P2;SDS_P1;SDS_P2;PMS_P1;PMS_P2;Temp;Humidity;BMP_temperature;BMP_pressure;BME280_temperature;BME280_humidity;BME280_pressure;Samples;Min_cycle;Max_cycle;Signal;HPM_P1;HPM_P2
2022/08/03 06:46:00;;;;;;;4.47;2.70;;;;;;;22.59;52.39;96623.66;2084716;28;20560;-59
2022/08/03 06:47:01;;;;;;;7.57;2.60;;;;;;;22.69;51.74;96625.44;2077374;28;20732;-59
2022/08/03 06:48:05;;;;;;;12.13;2.90;;;;;;;22.82;51.88;96633.97;2070571;28;20551;-59
2022/08/03 06:49:07;;;;;;;7.05;2.80;;;;;;;22.94;51.63;96629.28;2070571;28;20198;-59
2022/08/03 06:50:09;;;;;;;4.22;2.58;;;;;;;23.03;51.31;96630.22;2070509;28;20198;-60
2022/08/03 06:51:17;;;;;;;4.40;2.50;;;;;;;23.17;51.25;96631.59;2070352;28;20292;-60
2022/08/03 06:52:19;;;;;;;25.55;13.57;;;;;;;23.23;50.88;96636.34;2069490;28;20759;-60
2022/08/03 06:53:39;;;;;;;15.75;9.95;;;;;;;23.28;50.70;96640.22;2069225;28;20288;-60
2022/08/03 06:54:40;;;;;;;11.18;5.70;;;;;;;23.44;50.55;96639.59;2070461;28;20646;-61
2022/08/03 06:55:42;;;;;;;4.95;2.80;;;;;;;23.60;50.94;96636.28;2070239;28;20190;-61
2022/08/03 06:56:43;;;;;;;9.07;3.38;;;;;;;23.71;50.11;96629.88;2069438;28;20204;-61
2022/08/03 06:57:44;;;;;;;12.77;7.60;;;;;;;23.86;49.88;96638.19;2069850;28;20225;-60
2022/08/03 06:58:46;;;;;;;6.15;2.35;;;;;;;23.92;49.87;96642.94;2070444;28;20209;-60
2022/08/03 07:37:39;;;;;;;3.55;1.85;;;;;;;25.95;45.31;96643.56;2091939;27;20949;-58
2022/08/03 07:38:54;;;;;;;6.38;1.73;;;;;;;26.08;45.36;96643.94;2082793;28;20560;-60
2022/08/03 07:39:56;;;;;;;2.83;1.63;;;;;;;26.15;45.65;96641.44;2084231;28;20200;-60
2022/08/03 07:40:57;;;;;;;4.85;2.00;;;;;;;26.20;46.32;96639.09;2080746;28;20196;-60
2022/08/03 07:41:59;;;;;;;2.80;1.70;;;;;;;26.36;45.33;96650.78;2080930;28;20201;-59
2022/08/03 07:43:02;;;;;;;4.80;1.70;;;;;;;26.50;44.75;96649.28;2086942;28;20204;-67
2022/08/03 07:44:03;;;;;;;10.65;1.80;;;;;;;26.38;44.93;96652.28;2085203;28;20197;-67
2022/08/03 07:45:06;;;;;;;7.82;2.30;;;;;;;26.34;44.77;96648.28;2084230;28;20562;-67
2022/08/03 07:46:16;;;;;;;5.70;1.75;;;;;;;26.45;45.05;96648.94;2080496;28;20205;-67
2022/08/03 07:47:21;;;;;;;5.85;2.03;;;;;;;26.36;44.78;96656.16;2081174;28;20236;-59
2022/08/03 07:48:23;;;;;;;4.25;1.73;;;;;;;26.36;44.95;96656.16;2085611;28;20204;-59
2022/08/03 07:49:25;;;;;;;4.90;1.80;;;;;;;26.27;45.00;96652.66;2077669;28;20526;-59
2022/08/03 07:50:27;;;;;;;4.78;1.80;;;;;;;26.21;45.16;96651.47;2080420;28;20270;-60
2022/08/03 07:51:28;;;;;;;4.05;1.75;;;;;;;26.29;45.54;96652.50;2079903;28;20736;-59
2022/08/03 07:52:48;;;;;;;3.60;1.70;;;;;;;26.25;45.32;96651.97;2079389;28;20714;-60
2022/08/03 07:53:50;;;;;;;3.53;1.75;;;;;;;26.24;45.15;96645.81;2083929;28;20188;-61
2022/08/03 07:54:53;;;;;;;10.02;2.00;;;;;;;26.48;44.92;96654.00;2080944;28;20664;-61
2022/08/03 08:33:14;;;;;;;11.77;1.60;;;;;;;27.67;40.31;96622.00;2095093;27;20335;-67
2022/08/03 08:34:23;;;;;;;3.17;1.42;;;;;;;27.62;39.99;96648.53;2094423;28;20617;-68
2022/08/03 08:35:25;;;;;;;2.33;1.27;;;;;;;27.68;40.48;96642.44;2093742;28;20191;-66
2022/08/03 08:36:26;;;;;;;12.23;1.10;;;;;;;27.69;40.46;96638.72;2095397;28;20204;-68
2022/08/03 08:37:28;;;;;;;1.65;1.00;;;;;;;27.60;40.82;96642.47;2089617;27;20224;-66
2022/08/03 08:38:29;;;;;;;2.58;1.42;;;;;;;27.55;40.96;96643.00;2086896;28;20207;-67
2022/08/03 08:39:31;;;;;;;2.05;1.00;;;;;;;27.51;41.59;96642.50;2086345;28;20241;-67
2022/08/03 08:40:32;;;;;;;7.20;1.17;;;;;;;28.01;40.09;96647.56;2086823;28;20216;-67
2022/08/03 08:41:34;;;;;;;3.78;0.93;;;;;;;28.00;37.46;96641.38;2086837;28;20215;-66
2022/08/03 08:42:40;;;;;;;1.60;1.02;;;;;;;28.01;36.71;96642.22;2080042;28;20216;-67
2022/08/03 08:43:58;;;;;;;1.42;0.88;;;;;;;28.21;36.84;96634.56;2078529;28;20220;-65
2022/08/03 08:45:01;;;;;;;1.85;0.80;;;;;;;28.30;37.38;96641.53;2077908;28;20232;-67
2022/08/03 08:46:04;;;;;;;4.60;1.52;;;;;;;28.29;37.47;96641.69;2078693;28;20197;-65
2022/08/03 08:47:07;;;;;;;3.20;0.90;;;;;;;28.29;35.87;96636.31;2078362;28;20205;-67
2022/08/03 08:48:09;;;;;;;2.58;0.95;;;;;;;28.32;34.84;96644.88;2078043;28;20201;-67
2022/08/03 08:49:15;;;;;;;1.50;0.80;;;;;;;28.39;35.86;96639.63;2078573;28;20201;-66
2022/08/03 08:50:20;;;;;;;2.85;1.17;;;;;;;28.37;38.10;96644.34;2078662;28;20773;-66
2022/08/03 08:51:33;;;;;;;1.83;1.05;;;;;;;28.48;37.80;96645.72;2077472;28;20212;-66
2022/08/03 09:30:58;;;;;;;1.20;0.60;;;;;;;29.57;32.45;96634.53;2085821;28;20557;-72
2022/08/03 09:32:02;;;;;;;3.90;1.63;;;;;;;29.44;32.39;96628.97;2082449;28;20193;-67
2022/08/03 09:33:06;;;;;;;2.03;0.85;;;;;;;29.52;33.19;96628.03;2074586;28;20583;-68
2022/08/03 09:34:11;;;;;;;1.20;0.65;;;;;;;29.52;32.70;96628.84;2075658;28;20198;-70
2022/08/03 09:35:13;;;;;;;1.85;1.05;;;;;;;29.49;32.97;96621.16;2072820;28;20201;-66
2022/08/03 09:36:39;;;;;;;3.55;0.70;;;;;;;29.78;33.05;96627.50;2072419;28;20202;-67
2022/08/03 09:37:40;;;;;;;2.75;1.10;;;;;;;30.04;33.38;96626.13;2073787;28;20718;-70
2022/08/03 09:39:05;;;;;;;4.35;1.02;;;;;;;29.64;33.53;96623.84;2074857;28;20610;-70
2022/08/03 09:40:07;;;;;;;2.97;0.90;;;;;;;30.03;32.95;96625.31;2074619;28;20576;-69
2022/08/03 09:41:17;;;;;;;1.75;0.90;;;;;;;30.06;32.76;96632.16;2074304;28;20259;-70
2022/08/03 09:42:21;;;;;;;2.50;0.77;;;;;;;29.97;33.08;96621.50;2074489;28;20225;-71
2022/08/03 09:43:26;;;;;;;1.57;0.87;;;;;;;30.18;32.83;96629.78;2076567;28;20430;-71
2022/08/03 09:44:39;;;;;;;1.10;0.63;;;;;;;30.46;32.35;96627.97;2076008;28;20425;-69
2022/08/03 09:45:43;;;;;;;1.97;0.73;;;;;;;29.84;32.26;96639.34;2072815;28;20577;-68
2022/08/03 09:46:49;;;;;;;2.07;0.87;;;;;;;29.89;33.21;96629.72;2071491;28;20982;-70
2022/08/03 09:47:51;;;;;;;1.75;0.80;;;;;;;30.61;32.21;96627.91;2073403;28;20467;-69
2022/08/03 09:48:52;;;;;;;1.60;0.73;;;;;;;31.17;32.03;96626.19;2075940;28;20194;-70
2022/08/03 09:50:00;;;;;;;1.70;1.00;;;;;;;31.34;32.34;96615.06;2071441;28;20477;-70
2022/08/03 09:51:03;;;;;;;14.67;1.30;;;;;;;31.32;30.96;96636.03;2073234;28;20428;-70
2022/08/03 09:52:36;;;;;;;3.30;1.00;;;;;;;30.86;32.49;96622.06;2071631;28;20482;-70
2022/08/03 09:53:51;;;;;;;1.60;0.80;;;;;;;31.48;31.59;96624.88;2070736;28;20428;-70
2022/08/03 09:55:07;;;;;;;1.97;0.90;;;;;;;30.75;32.75;96626.13;2069587;28;20587;-67
2022/08/03 09:56:45;;;;;;;2.03;0.67;;;;;;;30.92;32.57;96629.34;2074719;28;20595;-70
2022/08/03 09:57:47;;;;;;;1.30;0.93;;;;;;;30.90;31.96;96625.19;2079446;28;20465;-69
2022/08/03 09:58:49;;;;;;;1.93;1.03;;;;;;;31.00;32.22;96622.13;2081215;28;20430;-69
2022/08/03 09:59:56;;;;;;;1.30;0.87;;;;;;;30.65;32.67;96622.13;2072416;28;20476;-69
2022/08/03 10:01:06;;;;;;;3.20;1.00;;;;;;;30.72;32.73;96623.00;2071919;28;20426;-69
2022/08/03 10:02:26;;;;;;;7.33;2.20;;;;;;;30.65;32.78;96630.19;2072837;28;20454;-69
2022/08/03 10:03:29;;;;;;;3.20;0.90;;;;;;;30.67;32.68;96628.16;2074157;28;20938;-67
2022/08/03 10:04:30;;;;;;;1.83;0.90;;;;;;;30.97;32.56;96631.47;2073427;28;20428;-67
2022/08/03 10:41:53;;;;;;;1.30;0.80;;;;;;;32.17;30.90;96587.88;2107536;27;20559;-67
2022/08/03 10:43:08;;;;;;;1.87;0.97;;;;;;;31.69;31.29;96583.47;2098804;28;20451;-67
2022/08/03 10:44:21;;;;;;;11.33;0.90;;;;;;;32.33;31.00;96593.94;2095159;28;20431;-67
2022/08/03 10:45:25;;;;;;;16.40;1.40;;;;;;;32.45;30.84;96594.16;2095358;28;21110;-67
2022/08/03 10:46:27;;;;;;;1.97;1.10;;;;;;;32.54;30.77;96588.34;2098041;28;20443;-68
2022/08/03 10:47:29;;;;;;;12.50;6.83;;;;;;;32.20;30.72;96590.22;2094724;28;20458;-68
2022/08/03 10:48:31;;;;;;;1.50;0.90;;;;;;;32.30;30.66;96599.78;2098996;28;20943;-69
2022/08/03 10:49:33;;;;;;;2.33;1.10;;;;;;;32.16;31.02;96588.91;2098605;28;20458;-68
2022/08/03 10:50:37;;;;;;;1.80;0.80;;;;;;;31.83;30.77;96597.81;2098828;28;20480;-68
2022/08/03 10:51:40;;;;;;;1.50;0.90;;;;;;;31.86;31.15;96585.81;2098572;28;20430;-68
2022/08/03 10:53:00;;;;;;;1.00;0.60;;;;;;;32.07;30.74;96590.16;2098097;28;20478;-68
2022/08/03 10:54:04;;;;;;;2.83;0.97;;;;;;;32.21;30.57;96588.34;2100446;28;20968;-68
2022/08/03 10:58:39;;;;;;;3.23;1.00;;;;;;;32.50;30.42;96587.09;2100910;28;20438;-68
2022/08/03 10:59:58;;;;;;;2.70;1.47;;;;;;;31.98;31.60;96577.91;2100513;28;20443;-68
2022/08/03 11:01:02;;;;;;;4.10;1.20;;;;;;;31.94;31.46;96591.00;2098364;28;20420;-68
2022/08/03 11:02:07;;;;;;;2.43;0.83;;;;;;;30.93;32.82;96587.91;2098048;28;20427;-68
2022/08/03 11:03:15;;;;;;;1.33;0.77;;;;;;;31.74;32.17;96589.09;2098015;28;20459;-68
2022/08/03 11:04:19;;;;;;;1.87;0.80;;;;;;;32.82;30.87;96578.34;2097410;28;20426;-68
2022/08/03 11:05:25;;;;;;;3.10;1.10;;;;;;;32.68;30.37;96585.59;2106276;28;20925;-68
2022/08/03 11:06:26;;;;;;;2.00;0.90;;;;;;;33.28;29.80;96590.06;2104949;28;20442;-68
2022/08/03 11:07:38;;;;;;;2.47;0.87;;;;;;;33.59;29.35;96583.91;2098745;28;20770;-69
2022/08/03 11:08:39;;;;;;;12.10;1.10;;;;;;;34.06;28.96;96588.25;2095234;28;20432;-68
2022/08/03 11:09:42;;;;;;;9.33;0.90;;;;;;;34.42;29.12;96589.44;2095258;28;20432;-67
2022/08/03 11:10:44;;;;;;;1.77;1.23;;;;;;;34.19;28.80;96588.13;2098414;28;20434;-67
2022/08/03 11:11:47;;;;;;;1.27;0.83;;;;;;;34.52;28.36;96586.22;2098725;28;20455;-68
2022/08/03 11:12:49;;;;;;;1.10;0.77;;;;;;;34.00;28.80;96584.50;2096951;28;20474;-68
2022/08/03 11:14:03;;;;;;;1.60;0.60;;;;;;;34.75;28.43;96580.97;2096162;28;20433;-68
2022/08/03 11:15:07;;;;;;;1.40;0.70;;;;;;;35.23;26.84;96576.72;2097226;28;20434;-68
2022/08/03 11:16:19;;;;;;;2.07;1.10;;;;;;;34.08;27.70;96569.88;2097678;28;20431;-68
2022/08/03 11:17:22;;;;;;;1.67;0.80;;;;;;;33.16;28.92;96566.38;2098714;28;20516;-68
2022/08/03 11:18:25;;;;;;;2.60;0.97;;;;;;;33.21;29.53;96571.16;2100181;28;20434;-68
2022/08/03 11:19:43;;;;;;;1.63;0.80;;;;;;;32.92;30.13;96570.63;2097715;28;20514;-68
2022/08/03 11:20:59;;;;;;;1.60;0.80;;;;;;;33.40;29.48;96564.00;2097503;28;20455;-68
2022/08/03 11:22:00;;;;;;;4.20;0.90;;;;;;;33.53;29.28;96568.53;2097867;28;20517;-68
2022/08/03 11:23:02;;;;;;;1.80;0.80;;;;;;;33.76;28.74;96575.28;2095144;28;20749;-67
2022/08/03 11:24:04;;;;;;;2.13;1.20;;;;;;;33.44;28.94;96572.53;2095088;28;20485;-68
2022/08/03 11:25:07;;;;;;;2.50;0.97;;;;;;;33.21;29.21;96563.84;2097761;28;20424;-67
2022/08/03 11:26:28;;;;;;;5.77;1.00;;;;;;;33.47;29.18;96566.69;2099328;28;20452;-68
2022/08/03 11:27:31;;;;;;;3.23;0.80;;;;;;;33.44;29.22;96559.81;2098201;28;20505;-68
2022/08/03 11:28:33;;;;;;;3.50;1.10;;;;;;;33.24;29.13;96567.19;2098915;28;20431;-68
2022/08/03 11:29:34;;;;;;;2.97;0.93;;;;;;;33.16;29.00;96563.66;2097754;28;20435;-68
2022/08/03 11:30:36;;;;;;;1.43;0.80;;;;;;;33.45;28.74;96556.09;2098396;28;20434;-68
2022/08/03 11:31:37;;;;;;;5.77;0.97;;;;;;;32.55;30.27;96579.19;2100551;28;21227;-69
2022/08/03 11:32:53;;;;;;;1.40;0.90;;;;;;;33.14;29.60;96563.06;2102259;28;20458;-69
2022/08/03 11:34:05;;;;;;;1.70;1.03;;;;;;;33.31;29.40;96563.44;2100761;28;20430;-69
2022/08/03 11:35:20;;;;;;;2.40;1.10;;;;;;;33.50;29.09;96563.56;2098415;28;20431;-69
2022/08/03 11:36:22;;;;;;;2.77;1.10;;;;;;;33.45;28.71;96557.97;2097699;28;20438;-69
2022/08/03 11:37:33;;;;;;;1.60;1.10;;;;;;;32.51;29.91;96563.63;2098268;28;20460;-66
2022/08/03 12:15:57;;;;;;;1.77;1.17;;;;;;;34.53;25.31;96539.09;2082626;28;20587;-65
2022/08/03 12:16:59;;;;;;;3.60;1.20;;;;;;;34.42;25.84;96544.19;2077126;28;20430;-66
2022/08/03 12:18:02;;;;;;;2.20;1.30;;;;;;;34.39;26.31;96544.63;2069925;28;20461;-66
2022/08/03 12:19:07;;;;;;;2.90;1.00;;;;;;;35.66;25.04;96544.28;2070745;28;20805;-65
2022/08/03 12:20:19;;;;;;;1.67;1.00;;;;;;;35.82;24.91;96542.75;2069365;28;20441;-66
2022/08/03 12:21:45;;;;;;;1.93;1.30;;;;;;;35.73;24.49;96542.25;2070625;28;20418;-66
2022/08/03 12:23:03;;;;;;;1.60;1.17;;;;;;;34.71;25.95;96538.28;2070575;28;20457;-66
2022/08/03 12:24:05;;;;;;;2.60;1.43;;;;;;;34.92;26.03;96531.59;2070067;28;20782;-66
2022/08/03 12:25:08;;;;;;;2.43;1.20;;;;;;;35.68;25.13;96532.13;2070682;28;20812;-66
2022/08/03 12:26:10;;;;;;;2.00;1.23;;;;;;;36.00;24.50;96523.72;2070724;28;20689;-66
2022/08/03 12:27:22;;;;;;;1.43;1.20;;;;;;;36.20;24.32;96531.53;2070140;28;20478;-66
2022/08/03 12:28:23;;;;;;;2.23;1.43;;;;;;;36.98;24.16;96525.16;2070790;28;20432;-66
2022/08/03 12:29:37;;;;;;;5.63;1.03;;;;;;;37.61;23.24;96526.13;2069901;28;20474;-66
2022/08/03 12:30:39;;;;;;;2.27;1.20;;;;;;;38.11;23.28;96526.44;2070874;28;21147;-66
2022/08/03 12:31:41;;;;;;;8.23;1.40;;;;;;;37.31;23.71;96518.19;2070717;28;20477;-66
2022/08/03 12:32:43;;;;;;;6.93;1.40;;;;;;;37.02;23.81;96520.88;2070105;28;20926;-66
2022/08/03 12:34:11;;;;;;;4.40;1.10;;;;;;;36.90;24.06;96521.75;2070010;28;20435;-67
2022/08/03 12:35:23;;;;;;;2.40;1.40;;;;;;;35.52;25.19;96530.88;2068352;28;20796;-67
2022/08/03 12:36:27;;;;;;;3.40;1.13;;;;;;;35.39;24.97;96510.19;2070204;28;20775;-67
2022/08/03 12:37:29;;;;;;;1.70;1.37;;;;;;;35.00;25.50;96520.47;2069544;28;20467;-66
2022/08/03 12:38:37;;;;;;;3.67;1.40;;;;;;;35.02;25.66;96509.38;2069945;28;20484;-67
2022/08/03 12:39:40;;;;;;;3.10;1.10;;;;;;;35.08;25.53;96524.75;2070651;28;20439;-67
2022/08/03 12:41:07;;;;;;;2.47;1.30;;;;;;;34.90;26.01;96525.59;2061270;28;20435;-69
2022/08/03 12:42:09;;;;;;;6.97;1.17;;;;;;;34.87;25.94;96521.44;2065319;28;20942;-68
2022/08/03 12:43:12;;;;;;;3.37;1.37;;;;;;;34.73;25.51;96528.03;2070195;28;20434;-68
2022/08/03 12:44:14;;;;;;;4.20;1.30;;;;;;;35.11;25.08;96514.28;2061779;28;20505;-69
2022/08/03 12:45:27;;;;;;;1.57;1.27;;;;;;;35.11;25.23;96510.72;2061699;28;20666;-68
2022/08/03 12:46:40;;;;;;;4.07;1.20;;;;;;;35.25;24.96;96514.94;2070250;28;20422;-68
2022/08/03 12:47:58;;;;;;;4.10;1.40;;;;;;;34.57;25.44;96510.50;2069980;28;20991;-68
2022/08/03 12:49:05;;;;;;;2.20;1.70;;;;;;;34.52;25.68;96513.88;2066657;28;20469;-68
2022/08/03 12:50:22;;;;;;;2.97;1.33;;;;;;;34.83;25.64;96512.09;2070214;28;20427;-69
2022/08/03 12:51:26;;;;;;;2.60;1.20;;;;;;;34.62;25.88;96508.75;2070589;28;20430;-69
2022/08/03 12:52:42;;;;;;;8.10;1.63;;;;;;;34.93;25.28;96514.28;2068891;28;20446;-69
2022/08/03 12:53:51;;;;;;;4.37;1.20;;;;;;;35.03;25.01;96505.63;2070521;28;20435;-68
2022/08/03 12:54:55;;;;;;;2.17;1.20;;;;;;;35.89;24.09;96511.75;2070243;28;20442;-68
2022/08/03 12:56:01;;;;;;;2.90;1.20;;;;;;;36.25;23.48;96500.94;2067431;28;20566;-68
2022/08/03 12:57:11;;;;;;;1.57;1.17;;;;;;;36.10;23.81;96509.53;2069216;28;20534;-67
2022/08/03 12:58:32;;;;;;;2.10;1.10;;;;;;;36.57;23.51;96504.16;2070314;28;20442;-67
2022/08/03 12:59:41;;;;;;;3.00;1.20;;;;;;;36.19;23.66;96505.44;2069949;28;20977;-66
2022/08/03 13:00:54;;;;;;;2.80;1.10;;;;;;;36.21;24.04;96511.44;2069159;28;20468;-66
2022/08/03 13:01:56;;;;;;;1.23;1.13;;;;;;;36.19;23.71;96505.44;2070908;28;20911;-66
2022/08/03 13:03:06;;;;;;;1.77;1.00;;;;;;;36.35;23.42;96509.31;2071085;28;20738;-66
2022/08/03 13:04:30;;;;;;;1.50;1.10;;;;;;;37.03;23.54;96508.94;2069911;28;20431;-65
2022/08/03 13:05:44;;;;;;;3.67;1.10;;;;;;;37.43;22.18;96499.94;2071876;28;20861;-66
2022/08/03 13:06:56;;;;;;;2.77;1.40;;;;;;;37.72;22.08;96506.16;2072246;28;20434;-66
2022/08/03 13:08:03;;;;;;;3.07;0.90;;;;;;;37.49;22.28;96489.97;2071905;28;20452;-67
2022/08/03 13:09:06;;;;;;;2.40;1.50;;;;;;;37.86;22.21;96500.44;2071611;28;20447;-67
2022/08/03 13:10:09;;;;;;;1.57;1.20;;;;;;;37.87;22.79;96502.91;2072102;28;20434;-66
2022/08/03 13:11:37;;;;;;;1.40;1.10;;;;;;;38.63;21.72;96504.38;2072094;28;20432;-65
2022/08/03 13:12:59;;;;;;;1.40;0.90;;;;;;;37.77;22.23;96491.81;2071438;28;20444;-67
2022/08/03 13:14:01;;;;;;;1.57;1.20;;;;;;;38.26;21.82;96498.63;2072131;28;20443;-66
2022/08/03 13:15:03;;;;;;;1.10;1.00;;;;;;;38.21;22.08;96494.75;2072266;28;20427;-67
2022/08/03 13:16:04;;;;;;;6.67;1.30;;;;;;;38.35;21.92;96499.91;2071512;28;20494;-67
2022/08/03 13:17:07;;;;;;;1.27;0.90;;;;;;;38.10;22.95;96503.03;2070587;28;20968;-67
2022/08/03 13:18:08;;;;;;;1.43;1.33;;;;;;;36.75;24.15;96496.91;2070653;28;20435;-66
2022/08/03 13:19:10;;;;;;;4.03;1.20;;;;;;;36.76;23.69;96493.09;2070840;28;20452;-67
2022/08/03 13:20:16;;;;;;;1.93;1.07;;;;;;;37.54;23.22;96495.50;2071063;28;20432;-68
2022/08/03 13:21:19;;;;;;;3.90;1.40;;;;;;;37.06;23.75;96506.53;2070962;28;20931;-67
2022/08/03 13:22:23;;;;;;;1.40;1.13;;;;;;;34.94;25.75;96500.50;2069742;28;20463;-67
2022/08/03 13:23:25;;;;;;;3.97;1.20;;;;;;;36.39;24.43;96501.56;2071054;28;20447;-66
2022/08/03 13:24:26;;;;;;;5.57;1.23;;;;;;;37.70;23.08;96493.88;2070523;28;20435;-67
2022/08/03 13:25:30;;;;;;;2.77;1.20;;;;;;;36.56;23.57;96497.06;2070490;28;20431;-67
2022/08/03 13:26:32;;;;;;;7.30;1.60;;;;;;;36.70;24.49;96492.19;2069961;28;20440;-67
2022/08/03 13:27:33;;;;;;;7.83;1.40;;;;;;;37.66;23.56;96493.56;2064174;28;20441;-67
2022/08/03 14:03:17;;;;;;;5.67;1.40;;;;;;;39.32;21.45;96434.81;2091701;28;20572;-65
2022/08/03 14:04:20;;;;;;;3.07;1.40;;;;;;;39.21;21.46;96457.63;2090044;28;20662;-65
2022/08/03 14:05:23;;;;;;;2.90;1.40;;;;;;;37.53;23.03;96458.47;2090944;28;20571;-66
2022/08/03 14:06:24;;;;;;;6.67;1.93;;;;;;;37.09;23.54;96457.09;2090631;28;20956;-66
2022/08/03 14:07:26;;;;;;;5.30;1.20;;;;;;;36.48;23.97;96462.09;2084876;28;20469;-66
2022/08/03 14:08:27;;;;;;;2.63;1.23;;;;;;;37.01;23.93;96443.88;2077727;28;20439;-66
2022/08/03 14:09:29;;;;;;;2.90;1.07;;;;;;;36.54;24.07;96452.97;2080100;28;20834;-66
2022/08/03 14:10:36;;;;;;;1.40;1.13;;;;;;;35.84;25.03;96451.84;2080576;28;20427;-66
2022/08/03 14:11:37;;;;;;;1.83;1.00;;;;;;;35.84;24.91;96453.75;2081492;28;20476;-66
2022/08/03 14:12:59;;;;;;;4.93;1.37;;;;;;;36.43;24.36;96437.50;2076916;28;20458;-66
2022/08/03 14:14:00;;;;;;;8.30;1.50;;;;;;;36.79;23.16;96449.13;2078020;28;20466;-66
2022/08/03 14:15:03;;;;;;;4.90;1.40;;;;;;;36.51;23.98;96449.91;2078496;28;20431;-66
2022/08/03 14:16:05;;;;;;;7.70;1.57;;;;;;;37.10;23.53;96447.03;2082776;28;20481;-66
2022/08/03 14:17:10;;;;;;;8.67;1.30;;;;;;;36.72;24.03;96443.84;2068061;28;20480;-66
2022/08/03 14:18:12;;;;;;;6.20;1.57;;;;;;;36.85;23.58;96448.19;2075020;28;20439;-67
2022/08/03 14:19:28;;;;;;;7.60;1.20;;;;;;;37.52;23.14;96451.34;2081833;28;20426;-67
2022/08/03 14:20:30;;;;;;;3.80;1.30;;;;;;;38.05;22.07;96450.06;2083688;28;20531;-67
2022/08/03 14:21:49;;;;;;;2.83;1.40;;;;;;;36.33;23.79;96440.81;2083645;28;20938;-67
2022/08/03 14:23:07;;;;;;;5.47;1.40;;;;;;;37.69;23.17;96452.22;2080935;28;20493;-66
2022/08/03 14:24:08;;;;;;;2.80;1.53;;;;;;;37.49;22.79;96447.22;2083008;28;20442;-67
2022/08/03 14:25:10;;;;;;;3.47;1.37;;;;;;;37.48;22.99;96445.56;2083680;28;20423;-64
2022/08/03 14:26:14;;;;;;;2.13;1.40;;;;;;;37.55;22.67;96437.28;2083592;28;20431;-64
2022/08/03 14:27:16;;;;;;;2.40;1.20;;;;;;;37.20;23.18;96441.78;2082799;28;20505;-66
2022/08/03 14:28:19;;;;;;;2.83;1.43;;;;;;;36.66;23.50;96449.38;2083067;28;20566;-64
2022/08/03 14:29:20;;;;;;;4.70;1.50;;;;;;;37.78;23.21;96446.34;2084051;28;20437;-65
2022/08/03 14:30:21;;;;;;;1.83;1.00;;;;;;;37.60;23.01;96447.41;2082047;28;20903;-65
2022/08/03 14:31:23;;;;;;;6.07;1.23;;;;;;;38.29;22.52;96439.00;2082668;28;20426;-66
2022/08/03 14:32:45;;;;;;;1.30;1.03;;;;;;;37.75;22.76;96442.22;2083516;28;20462;-67
2022/08/03 14:33:46;;;;;;;3.20;1.10;;;;;;;37.33;23.23;96438.00;2082010;28;20958;-65
2022/08/03 14:34:48;;;;;;;3.03;1.33;;;;;;;36.98;23.43;96446.28;2083171;28;20426;-67
2022/08/03 14:35:50;;;;;;;3.87;1.20;;;;;;;37.40;22.53;96440.53;2083358;28;20434;-67
2022/08/03 14:36:52;;;;;;;3.53;1.23;;;;;;;37.97;22.98;96445.06;2082090;28;20449;-69
2022/08/03 14:37:53;;;;;;;2.00;1.23;;;;;;;38.57;22.94;96439.13;2083648;28;20489;-67
2022/08/03 14:38:55;;;;;;;1.70;1.40;;;;;;;38.41;22.41;96438.88;2082082;28;20423;-71
2022/08/03 14:40:02;;;;;;;5.07;1.43;;;;;;;37.51;22.77;96442.38;2080878;28;20511;-71
2022/08/03 14:41:03;;;;;;;3.83;1.40;;;;;;;37.39;22.93;96442.44;2082089;28;21015;-70
2022/08/03 14:42:05;;;;;;;1.73;1.47;;;;;;;37.18;23.45;96435.78;2081128;28;20492;-71
2022/08/03 14:43:06;;;;;;;5.03;1.10;;;;;;;37.48;22.93;96431.97;2080225;28;20462;-70
2022/08/03 14:44:08;;;;;;;5.90;4.27;;;;;;;37.21;23.56;96434.47;2081216;28;20430;-67
2022/08/03 14:45:09;;;;;;;2.60;1.10;;;;;;;36.89;23.69;96432.22;2080904;28;20418;-68
2022/08/03 14:46:21;;;;;;;3.00;1.10;;;;;;;36.75;24.50;96427.03;2082285;28;20465;-67
2022/08/03 14:47:22;;;;;;;2.60;1.10;;;;;;;35.82;24.84;96435.00;2081951;28;20462;-68
2022/08/03 14:48:25;;;;;;;2.90;1.40;;;;;;;35.77;24.28;96415.84;2081493;28;20943;-69
2022/08/03 14:49:47;;;;;;;2.70;1.17;;;;;;;36.26;24.59;96431.94;2082405;28;20427;-67
2022/08/03 14:51:09;;;;;;;4.63;1.50;;;;;;;36.74;24.27;96421.84;2079824;28;20420;-68
2022/08/03 14:52:10;;;;;;;3.10;1.47;;;;;;;36.80;24.12;96436.34;2079937;28;20525;-68
2022/08/03 14:53:12;;;;;;;4.80;1.30;;;;;;;36.46;24.41;96431.59;2081017;28;20424;-67
2022/08/03 14:54:13;;;;;;;5.03;1.80;;;;;;;35.78;24.96;96433.78;2079983;28;20426;-68
2022/08/03 14:55:18;;;;;;;1.87;1.20;;;;;;;35.46;25.11;96434.09;2081232;28;20427;-67
2022/08/03 14:56:20;;;;;;;2.47;1.20;;;;;;;35.01;25.73;96435.34;2079347;28;20442;-68
2022/08/03 14:57:21;;;;;;;3.17;1.33;;;;;;;34.51;25.90;96433.63;2078396;28;20513;-66
2022/08/03 14:58:26;;;;;;;2.13;1.63;;;;;;;34.23;26.22;96429.50;2080391;28;20446;-65
2022/08/03 14:59:27;;;;;;;3.57;1.40;;;;;;;34.36;26.47;96430.47;2080602;28;20456;-65
2022/08/03 15:00:50;;;;;;;1.83;1.20;;;;;;;35.17;25.25;96430.31;2081352;28;20430;-67
2022/08/03 15:01:52;;;;;;;4.10;1.47;;;;;;;35.36;25.25;96431.13;2080694;28;20430;-66
2022/08/03 15:03:05;;;;;;;1.87;1.30;;;;;;;36.20;24.75;96420.16;2080860;28;20492;-66
2022/08/03 15:04:06;;;;;;;2.60;1.17;;;;;;;36.85;23.99;96434.59;2082098;28;20462;-66
2022/08/03 15:05:11;;;;;;;4.63;1.40;;;;;;;35.24;24.83;96428.34;2081302;28;20433;-67
2022/08/03 15:06:13;;;;;;;2.67;1.30;;;;;;;36.33;24.58;96421.78;2081849;28;20815;-67
2022/08/03 15:07:14;;;;;;;4.23;1.40;;;;;;;37.52;23.80;96432.31;2082403;28;20542;-66
2022/08/03 15:08:16;;;;;;;1.70;1.30;;;;;;;38.21;23.15;96429.34;2083474;28;20434;-66
2022/08/03 15:09:17;;;;;;;8.40;1.20;;;;;;;38.87;22.69;96425.06;2082227;28;20429;-67
2022/08/03 15:10:24;;;;;;;2.00;1.40;;;;;;;39.55;21.85;96426.59;2081658;28;20446;-67
2022/08/03 15:11:41;;;;;;;1.83;1.40;;;;;;;39.65;21.33;96418.50;2082099;28;20480;-66
2022/08/03 15:12:43;;;;;;;1.00;0.90;;;;;;;39.68;21.00;96418.81;2080531;28;20455;-66
2022/08/03 15:13:44;;;;;;;1.60;1.47;;;;;;;38.18;22.31;96413.50;2081535;28;20819;-66
2022/08/03 15:14:45;;;;;;;9.60;1.20;;;;;;;37.16;22.82;96418.03;2076384;28;20426;-66
2022/08/03 15:15:48;;;;;;;4.40;1.67;;;;;;;35.78;24.54;96412.06;2078037;28;20435;-66
2022/08/03 15:16:49;;;;;;;1.30;1.10;;;;;;;36.85;24.06;96418.28;2071009;28;20428;-65
2022/08/03 15:17:51;;;;;;;4.63;1.50;;;;;;;35.53;24.47;96413.13;2073406;28;20525;-66
2022/08/03 15:19:01;;;;;;;2.77;1.37;;;;;;;36.40;24.16;96411.63;2076458;28;20517;-66
2022/08/03 15:20:07;;;;;;;4.57;1.27;;;;;;;36.57;23.86;96403.56;2075619;28;20594;-66
2022/08/03 15:21:28;;;;;;;2.77;1.20;;;;;;;36.23;23.99;96397.09;2075405;28;20477;-66
2022/08/03 15:22:47;;;;;;;2.33;1.13;;;;;;;34.75;25.85;96401.22;2076622;28;21036;-66
2022/08/03 15:23:49;;;;;;;4.23;1.20;;;;;;;35.26;25.62;96408.06;2073928;28;20455;-65
2022/08/03 15:24:50;;;;;;;2.07;1.60;;;;;;;36.56;24.56;96401.91;2076469;28;20431;-66
2022/08/03 15:25:52;;;;;;;5.07;1.40;;;;;;;36.97;23.53;96404.63;2075766;28;20466;-66
2022/08/03 15:27:13;;;;;;;1.50;1.30;;;;;;;38.14;22.59;96397.88;2072467;28;20412;-66
2022/08/03 15:28:15;;;;;;;4.27;1.40;;;;;;;38.66;21.83;96411.13;2075556;28;20442;-66
2022/08/03 15:29:17;;;;;;;2.40;1.13;;;;;;;39.07;21.49;96405.34;2074837;28;20423;-66
2022/08/03 15:30:38;;;;;;;2.07;1.40;;;;;;;39.16;21.46;96401.09;2075173;28;20980;-66
2022/08/03 15:31:40;;;;;;;1.50;1.27;;;;;;;39.31;21.21;96405.06;2075628;28;20427;-66
2022/08/03 15:32:41;;;;;;;3.40;1.37;;;;;;;39.53;21.03;96399.53;2074859;28;20466;-66
2022/08/03 15:33:43;;;;;;;1.90;1.60;;;;;;;38.30;21.82;96399.78;2074803;28;20428;-67
2022/08/03 15:34:45;;;;;;;6.30;1.00;;;;;;;38.62;21.74;96395.53;2074924;28;20440;-66
2022/08/03 15:35:51;;;;;;;1.67;1.50;;;;;;;37.98;22.04;96397.69;2075586;28;20429;-67
2022/08/03 15:36:53;;;;;;;1.33;1.07;;;;;;;36.15;23.34;96381.16;2075337;28;20594;-66
2022/08/03 15:37:54;;;;;;;3.27;1.13;;;;;;;36.63;23.90;96384.63;2075116;28;20450;-66
2022/08/03 15:38:56;;;;;;;2.40;1.00;;;;;;;37.78;22.77;96392.72;2075766;28;20798;-66
2022/08/03 15:39:57;;;;;;;3.20;1.17;;;;;;;38.36;22.54;96395.22;2074762;28;20462;-66
2022/08/03 15:41:01;;;;;;;2.37;1.00;;;;;;;38.75;21.50;96392.44;2073843;28;20439;-66
2022/08/03 15:42:02;;;;;;;1.63;1.10;;;;;;;38.79;21.65;96393.59;2074358;28;20476;-66
2022/08/03 15:43:04;;;;;;;2.03;1.30;;;;;;;36.93;23.27;96387.16;2075805;28;20490;-66